logo meteoemiliaromagna

Diretta Meteo Katowice, Polonialunedì 22 luglio ore 10:30

Mappa
Sereno 27 °C Poco Nuvoloso 24 Ore: T.min 14 T.max 29
Ponente Nord Km/h 5.5 Punto di rugiada: 17 °C Umidità: 54% Visibilità: 10 Km
Il sole sorge alle: 04:57 Il sole tramonta alle: 20:43
22 Luglio 2024 10:30 tempo osservato: Poco Nuvoloso Poco Nuvoloso 27 54 1012 vento: Nord N 5.5
22 Luglio 2024 10:00 tempo osservato: Sereno Sereno 26 54 1012 vento: Nord S/SE 7.4
22 Luglio 2024 09:30 tempo osservato: Sereno Sereno 25 61 1012 vento: Nord E/SE 13
22 Luglio 2024 09:00 tempo osservato: Sereno Sereno 25 61 1012 vento: Nord E/SE 7.4
22 Luglio 2024 08:30 tempo osservato: Sereno Sereno 24 64 1012 vento: Nord E/SE 7.4
22 Luglio 2024 08:00 tempo osservato: Sereno Sereno 23 73 1012 vento: Nord N 5.5
22 Luglio 2024 07:30 tempo osservato: Sereno Sereno 21 77 1012 vento: Nord N 3.7
22 Luglio 2024 07:00 tempo osservato: Sereno Sereno 18 88 1012 vento: Nord N 3.7
22 Luglio 2024 06:30 tempo osservato: Sereno Sereno 16 93 1011 vento: Nord N 1.8
22 Luglio 2024 06:00 tempo osservato: Sereno Sereno 15 93 1011 vento: Nord N 1.8
22 Luglio 2024 05:30 tempo osservato: Sereno Sereno 14 100 1011 vento: Nord N 5.5
22 Luglio 2024 05:00 tempo osservato: Sereno Sereno 14 93 1011 vento: Nord N 3.7
22 Luglio 2024 04:30 tempo osservato: Sereno Sereno 14 93 1011 vento: Nord N 1.8
22 Luglio 2024 04:00 tempo osservato: Sereno Sereno 14 100 1011 vento: Nord N 3.7
22 Luglio 2024 03:30 tempo osservato: Sereno Sereno 14 100 1011 vento: Nord N 1.8
22 Luglio 2024 03:00 tempo osservato: Sereno Sereno 15 93 1011 vento: Nord N 3.7
22 Luglio 2024 02:30 tempo osservato: Sereno Sereno 15 100 1011 vento: Nord N 5.5
22 Luglio 2024 02:00 tempo osservato: Sereno Sereno 16 93 1011 vento: Nord N 5.5
22 Luglio 2024 01:30 tempo osservato: Sereno Sereno 16 93 1011 vento: Nord N 3.7
22 Luglio 2024 01:00 tempo osservato: Sereno Sereno 15 100 1011 vento: Nord N 3.7
22 Luglio 2024 00:30 tempo osservato: Sereno Sereno 16 87 1011 vento: Nord N 3.7
22 Luglio 2024 00:00 tempo osservato: Sereno Sereno 16 93 1011 vento: Nord N 1.8
21 Luglio 2024 23:30 tempo osservato: Sereno Sereno 17 88 1011 vento: Nord N 3.7
21 Luglio 2024 23:00 tempo osservato: Sereno Sereno 17 88 1011 vento: Nord N 1.8
21 Luglio 2024 22:30 tempo osservato: Sereno Sereno 18 82 1011 vento: Nord N 3.7
21 Luglio 2024 22:00 tempo osservato: Sereno Sereno 19 77 1011 vento: Nord N 3.7
21 Luglio 2024 21:30 tempo osservato: Sereno Sereno 21 68 1010 vento: Nord N 3.7
21 Luglio 2024 21:00 tempo osservato: Sereno Sereno 22 64 1010 vento: Nord N 5.5
21 Luglio 2024 20:30 tempo osservato: Sereno Sereno 23 64 1010 vento: Nord N 3.7
21 Luglio 2024 20:00 tempo osservato: Sereno Sereno 26 50 1010 vento: Nord N 3.7
21 Luglio 2024 19:30 tempo osservato: Sereno Sereno 27 44 1010 vento: Nord N 3.7
21 Luglio 2024 19:00 tempo osservato: Sereno Sereno 28 42 1010 vento: Nord N 5.5
21 Luglio 2024 18:30 tempo osservato: Sereno Sereno 28 39 1010 vento: Nord NE 7.4
21 Luglio 2024 18:00 tempo osservato: Sereno Sereno 28 39 1009 vento: Nord N 7.4
21 Luglio 2024 17:30 tempo osservato: Sereno Sereno 29 37 1009 vento: Nord N/NO 7.4
21 Luglio 2024 17:00 tempo osservato: Sereno Sereno 29 32 1009 vento: Nord N 5.5
21 Luglio 2024 16:30 tempo osservato: Sereno Sereno 29 35 1010 vento: Nord N 3.7
21 Luglio 2024 16:00 tempo osservato: Sereno Sereno 28 37 1010 vento: Nord NE 11.1
21 Luglio 2024 15:30 tempo osservato: Sereno Sereno 28 34 1010 vento: Nord N 5.5
21 Luglio 2024 15:00 tempo osservato: Sereno Sereno 28 34 1010 vento: Nord N 5.5
21 Luglio 2024 14:30 tempo osservato: Sereno Sereno 27 39 1010 vento: Nord NE 9.3
21 Luglio 2024 14:00 tempo osservato: Sereno Sereno 28 37 1010 vento: Nord N 5.5
21 Luglio 2024 13:30 tempo osservato: Sereno Sereno 27 39 1010 vento: Nord O/NO 11.1
21 Luglio 2024 13:00 tempo osservato: Sereno Sereno 26 44 1010 vento: Nord N 3.7
21 Luglio 2024 12:30 tempo osservato: Sereno Sereno 27 36 1011 vento: Nord E 13
21 Luglio 2024 12:00 tempo osservato: Sereno Sereno 27 39 1011 vento: Nord E/SE 7.4
21 Luglio 2024 11:30 tempo osservato: Sereno Sereno 26 39 1011 vento: Nord E/NE 9.3
21 Luglio 2024 11:00 tempo osservato: Sereno Sereno 26 41 1011 vento: Nord N 5.5